sensor_id;sensor_type;location;lat;lon;timestamp;P1;durP1;ratioP1;P2;durP2;ratioP2
35276;SDS011;21401;50.878;8.050;2022-10-19T00:01:03;73.35;;;13.13;;
35276;SDS011;21401;50.878;8.050;2022-10-19T00:03:30;172.32;;;13.75;;
35276;SDS011;21401;50.878;8.050;2022-10-19T00:05:59;119.10;;;10.15;;
35276;SDS011;21401;50.878;8.050;2022-10-19T00:08:25;71.22;;;10.32;;
35276;SDS011;21401;50.878;8.050;2022-10-19T00:10:57;86.00;;;11.55;;
35276;SDS011;21401;50.878;8.050;2022-10-19T00:13:25;77.90;;;10.80;;
35276;SDS011;21401;50.878;8.050;2022-10-19T00:15:51;60.78;;;10.68;;
35276;SDS011;21401;50.878;8.050;2022-10-19T00:18:16;36.90;;;9.85;;
35276;SDS011;21401;50.878;8.050;2022-10-19T00:20:42;35.28;;;10.82;;
35276;SDS011;21401;50.878;8.050;2022-10-19T00:23:07;55.83;;;10.63;;
35276;SDS011;21401;50.878;8.050;2022-10-19T00:25:33;37.97;;;10.00;;
35276;SDS011;21401;50.878;8.050;2022-10-19T00:27:59;46.40;;;8.73;;
35276;SDS011;21401;50.878;8.050;2022-10-19T00:30:25;25.65;;;7.47;;
35276;SDS011;21401;50.878;8.050;2022-10-19T00:33:03;23.75;;;7.82;;
35276;SDS011;21401;50.878;8.050;2022-10-19T00:35:29;18.30;;;7.40;;
35276;SDS011;21401;50.878;8.050;2022-10-19T00:37:54;19.77;;;7.93;;
35276;SDS011;21401;50.878;8.050;2022-10-19T00:40:20;33.03;;;7.20;;
35276;SDS011;21401;50.878;8.050;2022-10-19T00:42:52;15.20;;;7.85;;
35276;SDS011;21401;50.878;8.050;2022-10-19T00:45:19;30.25;;;7.45;;
35276;SDS011;21401;50.878;8.050;2022-10-19T00:47:45;36.75;;;7.60;;
35276;SDS011;21401;50.878;8.050;2022-10-19T00:50:11;41.88;;;8.95;;
35276;SDS011;21401;50.878;8.050;2022-10-19T00:52:45;23.45;;;6.82;;
35276;SDS011;21401;50.878;8.050;2022-10-19T00:55:11;30.58;;;6.63;;
35276;SDS011;21401;50.878;8.050;2022-10-19T00:57:37;33.55;;;7.22;;
35276;SDS011;21401;50.878;8.050;2022-10-19T01:00:05;31.98;;;7.03;;
35276;SDS011;21401;50.878;8.050;2022-10-19T01:02:31;37.60;;;7.45;;
35276;SDS011;21401;50.878;8.050;2022-10-19T01:04:57;176.80;;;10.43;;
35276;SDS011;21401;50.878;8.050;2022-10-19T01:07:23;103.45;;;8.95;;
35276;SDS011;21401;50.878;8.050;2022-10-19T01:09:53;87.35;;;9.27;;
35276;SDS011;21401;50.878;8.050;2022-10-19T01:12:39;116.82;;;8.95;;
35276;SDS011;21401;50.878;8.050;2022-10-19T01:16:05;48.90;;;9.45;;
35276;SDS011;21401;50.878;8.050;2022-10-19T01:23:35;16.30;;;6.75;;
35276;SDS011;21401;50.878;8.050;2022-10-19T01:32:29;17.80;;;7.47;;
35276;SDS011;21401;50.878;8.050;2022-10-19T01:35:27;19.67;;;7.30;;
35276;SDS011;21401;50.878;8.050;2022-10-19T01:38:24;16.52;;;6.32;;
35276;SDS011;21401;50.878;8.050;2022-10-19T01:46:12;24.95;;;7.72;;
35276;SDS011;21401;50.878;8.050;2022-10-19T01:48:54;49.38;;;9.95;;
35276;SDS011;21401;50.878;8.050;2022-10-19T01:51:31;27.13;;;8.25;;
35276;SDS011;21401;50.878;8.050;2022-10-19T01:54:03;46.58;;;8.07;;
35276;SDS011;21401;50.878;8.050;2022-10-19T01:56:33;35.78;;;11.57;;
35276;SDS011;21401;50.878;8.050;2022-10-19T01:59:02;280.13;;;18.02;;
35276;SDS011;21401;50.878;8.050;2022-10-19T02:01:33;59.72;;;10.70;;
35276;SDS011;21401;50.878;8.050;2022-10-19T02:04:01;114.10;;;11.27;;
35276;SDS011;21401;50.878;8.050;2022-10-19T02:06:28;53.20;;;9.73;;
35276;SDS011;21401;50.878;8.050;2022-10-19T02:08:54;89.65;;;11.65;;
35276;SDS011;21401;50.878;8.050;2022-10-19T02:11:20;101.10;;;14.95;;
35276;SDS011;21401;50.878;8.050;2022-10-19T02:13:50;160.10;;;13.70;;
35276;SDS011;21401;50.878;8.050;2022-10-19T02:16:31;168.32;;;12.95;;
35276;SDS011;21401;50.878;8.050;2022-10-19T02:19:06;53.13;;;11.25;;
35276;SDS011;21401;50.878;8.050;2022-10-19T02:21:36;81.07;;;10.30;;
35276;SDS011;21401;50.878;8.050;2022-10-19T02:24:06;92.10;;;10.50;;
35276;SDS011;21401;50.878;8.050;2022-10-19T02:26:32;46.20;;;8.23;;
35276;SDS011;21401;50.878;8.050;2022-10-19T02:28:58;31.75;;;7.22;;
35276;SDS011;21401;50.878;8.050;2022-10-19T02:31:26;49.85;;;9.80;;
35276;SDS011;21401;50.878;8.050;2022-10-19T02:33:54;35.03;;;7.28;;
35276;SDS011;21401;50.878;8.050;2022-10-19T02:36:20;35.78;;;7.25;;
35276;SDS011;21401;50.878;8.050;2022-10-19T02:39:04;97.82;;;7.53;;
35276;SDS011;21401;50.878;8.050;2022-10-19T02:41:35;26.73;;;6.38;;
35276;SDS011;21401;50.878;8.050;2022-10-19T02:46:53;64.25;;;6.88;;
35276;SDS011;21401;50.878;8.050;2022-10-19T02:49:39;116.53;;;8.90;;
35276;SDS011;21401;50.878;8.050;2022-10-19T02:52:10;59.22;;;6.68;;
35276;SDS011;21401;50.878;8.050;2022-10-19T02:54:38;37.72;;;5.45;;
35276;SDS011;21401;50.878;8.050;2022-10-19T02:57:16;48.38;;;5.88;;
35276;SDS011;21401;50.878;8.050;2022-10-19T02:59:45;61.42;;;6.65;;
35276;SDS011;21401;50.878;8.050;2022-10-19T03:02:12;34.97;;;5.18;;
35276;SDS011;21401;50.878;8.050;2022-10-19T03:04:38;36.45;;;6.03;;
35276;SDS011;21401;50.878;8.050;2022-10-19T03:07:05;30.42;;;4.03;;
35276;SDS011;21401;50.878;8.050;2022-10-19T03:09:35;16.33;;;4.82;;
35276;SDS011;21401;50.878;8.050;2022-10-19T03:12:03;21.90;;;4.50;;
35276;SDS011;21401;50.878;8.050;2022-10-19T03:14:28;21.15;;;4.13;;
35276;SDS011;21401;50.878;8.050;2022-10-19T03:16:56;14.65;;;3.42;;
35276;SDS011;21401;50.878;8.050;2022-10-19T03:19:24;31.33;;;4.20;;
35276;SDS011;21401;50.878;8.050;2022-10-19T03:21:52;54.95;;;2.97;;
35276;SDS011;21401;50.878;8.050;2022-10-19T03:24:20;119.65;;;4.43;;
35276;SDS011;21401;50.878;8.050;2022-10-19T03:26:45;57.25;;;5.18;;
35276;SDS011;21401;50.878;8.050;2022-10-19T03:29:11;36.58;;;5.07;;
35276;SDS011;21401;50.878;8.050;2022-10-19T03:31:37;32.88;;;5.25;;
35276;SDS011;21401;50.878;8.050;2022-10-19T03:34:05;35.13;;;5.05;;
35276;SDS011;21401;50.878;8.050;2022-10-19T03:36:34;134.52;;;6.80;;
35276;SDS011;21401;50.878;8.050;2022-10-19T03:39:05;137.10;;;10.15;;
35276;SDS011;21401;50.878;8.050;2022-10-19T03:41:34;30.27;;;5.13;;
35276;SDS011;21401;50.878;8.050;2022-10-19T03:44:01;19.40;;;4.28;;
35276;SDS011;21401;50.878;8.050;2022-10-19T03:46:30;23.70;;;4.60;;
35276;SDS011;21401;50.878;8.050;2022-10-19T03:48:56;28.05;;;3.70;;
35276;SDS011;21401;50.878;8.050;2022-10-19T03:51:25;11.85;;;3.47;;
35276;SDS011;21401;50.878;8.050;2022-10-19T03:53:57;19.67;;;3.17;;
35276;SDS011;21401;50.878;8.050;2022-10-19T03:56:29;20.85;;;2.35;;
35276;SDS011;21401;50.878;8.050;2022-10-19T03:58:57;72.57;;;4.75;;
35276;SDS011;21401;50.878;8.050;2022-10-19T04:01:25;71.53;;;5.40;;
35276;SDS011;21401;50.878;8.050;2022-10-19T04:03:56;41.45;;;3.00;;
35276;SDS011;21401;50.878;8.050;2022-10-19T04:06:27;34.65;;;3.20;;
35276;SDS011;21401;50.878;8.050;2022-10-19T04:08:57;36.45;;;3.65;;
35276;SDS011;21401;50.878;8.050;2022-10-19T04:11:24;37.72;;;3.50;;
35276;SDS011;21401;50.878;8.050;2022-10-19T04:13:53;34.45;;;3.85;;
35276;SDS011;21401;50.878;8.050;2022-10-19T04:16:20;67.75;;;6.10;;
35276;SDS011;21401;50.878;8.050;2022-10-19T04:18:54;20.25;;;2.97;;
35276;SDS011;21401;50.878;8.050;2022-10-19T04:21:30;23.35;;;2.70;;
35276;SDS011;21401;50.878;8.050;2022-10-19T04:23:59;37.80;;;3.95;;
35276;SDS011;21401;50.878;8.050;2022-10-19T04:26:28;10.93;;;2.13;;
35276;SDS011;21401;50.878;8.050;2022-10-19T04:28:55;24.65;;;2.33;;
35276;SDS011;21401;50.878;8.050;2022-10-19T04:31:24;9.70;;;2.15;;
35276;SDS011;21401;50.878;8.050;2022-10-19T04:33:51;53.63;;;3.38;;
35276;SDS011;21401;50.878;8.050;2022-10-19T04:36:17;12.73;;;2.13;;
35276;SDS011;21401;50.878;8.050;2022-10-19T04:38:43;8.15;;;2.25;;
35276;SDS011;21401;50.878;8.050;2022-10-19T04:41:12;22.02;;;1.77;;
35276;SDS011;21401;50.878;8.050;2022-10-19T04:43:41;17.27;;;2.80;;
35276;SDS011;21401;50.878;8.050;2022-10-19T04:46:10;13.23;;;2.58;;
35276;SDS011;21401;50.878;8.050;2022-10-19T04:48:40;43.13;;;3.92;;
35276;SDS011;21401;50.878;8.050;2022-10-19T04:51:08;140.25;;;8.75;;
35276;SDS011;21401;50.878;8.050;2022-10-19T04:53:35;71.85;;;5.68;;
35276;SDS011;21401;50.878;8.050;2022-10-19T04:56:06;13.80;;;4.03;;
35276;SDS011;21401;50.878;8.050;2022-10-19T04:58:32;18.38;;;5.40;;
35276;SDS011;21401;50.878;8.050;2022-10-19T05:00:58;36.90;;;4.85;;
35276;SDS011;21401;50.878;8.050;2022-10-19T05:03:30;35.50;;;3.83;;
35276;SDS011;21401;50.878;8.050;2022-10-19T05:05:57;22.42;;;5.93;;
35276;SDS011;21401;50.878;8.050;2022-10-19T05:08:23;29.70;;;6.75;;
35276;SDS011;21401;50.878;8.050;2022-10-19T05:10:51;41.63;;;6.85;;
35276;SDS011;21401;50.878;8.050;2022-10-19T05:13:19;13.80;;;4.15;;
35276;SDS011;21401;50.878;8.050;2022-10-19T05:15:54;18.17;;;4.15;;
35276;SDS011;21401;50.878;8.050;2022-10-19T05:18:23;15.00;;;4.13;;
35276;SDS011;21401;50.878;8.050;2022-10-19T05:20:58;59.47;;;5.38;;
35276;SDS011;21401;50.878;8.050;2022-10-19T05:23:28;9.48;;;4.28;;
35276;SDS011;21401;50.878;8.050;2022-10-19T05:26:00;11.38;;;5.00;;
35276;SDS011;21401;50.878;8.050;2022-10-19T05:28:28;23.27;;;5.70;;
35276;SDS011;21401;50.878;8.050;2022-10-19T05:30:54;16.67;;;4.63;;
35276;SDS011;21401;50.878;8.050;2022-10-19T05:33:28;19.08;;;4.60;;
35276;SDS011;21401;50.878;8.050;2022-10-19T05:35:53;39.28;;;4.90;;
35276;SDS011;21401;50.878;8.050;2022-10-19T05:38:19;51.50;;;4.97;;
35276;SDS011;21401;50.878;8.050;2022-10-19T05:40:45;29.30;;;5.53;;
35276;SDS011;21401;50.878;8.050;2022-10-19T05:43:11;37.88;;;4.63;;
35276;SDS011;21401;50.878;8.050;2022-10-19T05:45:39;36.22;;;3.78;;
35276;SDS011;21401;50.878;8.050;2022-10-19T05:48:06;32.35;;;3.60;;
35276;SDS011;21401;50.878;8.050;2022-10-19T05:50:34;18.33;;;2.55;;
35276;SDS011;21401;50.878;8.050;2022-10-19T05:53:00;10.43;;;2.35;;
35276;SDS011;21401;50.878;8.050;2022-10-19T05:55:32;2.95;;;1.50;;
35276;SDS011;21401;50.878;8.050;2022-10-19T05:57:59;5.82;;;1.83;;
35276;SDS011;21401;50.878;8.050;2022-10-19T06:00:24;9.15;;;1.40;;
35276;SDS011;21401;50.878;8.050;2022-10-19T06:02:50;22.88;;;2.50;;
35276;SDS011;21401;50.878;8.050;2022-10-19T06:05:18;18.63;;;1.92;;
35276;SDS011;21401;50.878;8.050;2022-10-19T06:07:43;29.17;;;3.70;;
35276;SDS011;21401;50.878;8.050;2022-10-19T06:10:09;21.45;;;2.03;;
35276;SDS011;21401;50.878;8.050;2022-10-19T06:12:35;4.43;;;1.90;;
35276;SDS011;21401;50.878;8.050;2022-10-19T06:15:01;7.18;;;2.10;;
35276;SDS011;21401;50.878;8.050;2022-10-19T06:17:27;6.90;;;1.80;;
35276;SDS011;21401;50.878;8.050;2022-10-19T06:19:55;3.60;;;2.00;;
35276;SDS011;21401;50.878;8.050;2022-10-19T06:22:21;12.95;;;1.83;;
35276;SDS011;21401;50.878;8.050;2022-10-19T06:24:46;9.90;;;2.00;;
35276;SDS011;21401;50.878;8.050;2022-10-19T06:27:14;7.35;;;1.60;;
35276;SDS011;21401;50.878;8.050;2022-10-19T06:29:39;7.07;;;1.70;;
35276;SDS011;21401;50.878;8.050;2022-10-19T06:32:05;13.77;;;1.80;;
35276;SDS011;21401;50.878;8.050;2022-10-19T06:34:31;2.20;;;1.42;;
35276;SDS011;21401;50.878;8.050;2022-10-19T06:36:56;3.80;;;1.50;;
35276;SDS011;21401;50.878;8.050;2022-10-19T06:39:27;2.38;;;1.75;;
35276;SDS011;21401;50.878;8.050;2022-10-19T06:41:57;9.02;;;1.75;;
35276;SDS011;21401;50.878;8.050;2022-10-19T06:44:23;5.80;;;1.85;;
35276;SDS011;21401;50.878;8.050;2022-10-19T06:46:48;4.45;;;1.83;;
35276;SDS011;21401;50.878;8.050;2022-10-19T06:49:14;5.78;;;2.08;;
35276;SDS011;21401;50.878;8.050;2022-10-19T06:51:39;3.92;;;2.67;;
35276;SDS011;21401;50.878;8.050;2022-10-19T06:54:07;3.30;;;2.30;;
35276;SDS011;21401;50.878;8.050;2022-10-19T06:56:33;2.53;;;1.90;;
35276;SDS011;21401;50.878;8.050;2022-10-19T06:59:01;3.97;;;2.20;;
35276;SDS011;21401;50.878;8.050;2022-10-19T07:01:26;7.18;;;2.28;;
35276;SDS011;21401;50.878;8.050;2022-10-19T07:03:52;4.32;;;2.22;;
35276;SDS011;21401;50.878;8.050;2022-10-19T07:06:21;6.35;;;2.38;;
35276;SDS011;21401;50.878;8.050;2022-10-19T07:08:47;4.05;;;2.05;;
35276;SDS011;21401;50.878;8.050;2022-10-19T07:11:14;6.18;;;2.85;;
35276;SDS011;21401;50.878;8.050;2022-10-19T07:13:43;5.72;;;2.45;;
35276;SDS011;21401;50.878;8.050;2022-10-19T07:16:12;4.47;;;3.17;;
35276;SDS011;21401;50.878;8.050;2022-10-19T07:18:40;8.45;;;2.70;;
35276;SDS011;21401;50.878;8.050;2022-10-19T07:21:10;6.78;;;3.05;;
35276;SDS011;21401;50.878;8.050;2022-10-19T07:23:38;6.70;;;3.40;;
35276;SDS011;21401;50.878;8.050;2022-10-19T07:26:10;10.55;;;2.80;;
35276;SDS011;21401;50.878;8.050;2022-10-19T07:28:39;6.20;;;3.30;;
35276;SDS011;21401;50.878;8.050;2022-10-19T07:31:07;16.65;;;4.07;;
35276;SDS011;21401;50.878;8.050;2022-10-19T07:33:35;15.05;;;4.70;;
35276;SDS011;21401;50.878;8.050;2022-10-19T07:36:04;8.48;;;3.85;;
35276;SDS011;21401;50.878;8.050;2022-10-19T07:38:32;8.15;;;3.90;;
35276;SDS011;21401;50.878;8.050;2022-10-19T07:41:08;10.75;;;5.00;;
35276;SDS011;21401;50.878;8.050;2022-10-19T07:43:38;9.15;;;4.22;;
35276;SDS011;21401;50.878;8.050;2022-10-19T07:46:07;15.18;;;6.35;;
35276;SDS011;21401;50.878;8.050;2022-10-19T07:48:37;20.15;;;7.85;;
35276;SDS011;21401;50.878;8.050;2022-10-19T07:51:06;19.13;;;9.60;;
35276;SDS011;21401;50.878;8.050;2022-10-19T07:53:33;18.45;;;9.05;;
35276;SDS011;21401;50.878;8.050;2022-10-19T07:56:09;18.58;;;9.07;;
35276;SDS011;21401;50.878;8.050;2022-10-19T07:58:40;21.70;;;8.35;;
35276;SDS011;21401;50.878;8.050;2022-10-19T08:03:33;23.42;;;9.15;;
35276;SDS011;21401;50.878;8.050;2022-10-19T08:06:00;22.30;;;9.25;;
35276;SDS011;21401;50.878;8.050;2022-10-19T08:08:38;22.70;;;9.43;;
35276;SDS011;21401;50.878;8.050;2022-10-19T08:11:07;21.88;;;10.52;;
35276;SDS011;21401;50.878;8.050;2022-10-19T08:13:40;19.30;;;9.23;;
35276;SDS011;21401;50.878;8.050;2022-10-19T08:16:19;20.38;;;9.75;;
35276;SDS011;21401;50.878;8.050;2022-10-19T08:18:45;26.23;;;9.40;;
35276;SDS011;21401;50.878;8.050;2022-10-19T08:21:10;26.27;;;10.38;;
35276;SDS011;21401;50.878;8.050;2022-10-19T08:23:36;31.65;;;12.85;;
35276;SDS011;21401;50.878;8.050;2022-10-19T08:26:02;36.92;;;13.23;;
35276;SDS011;21401;50.878;8.050;2022-10-19T08:28:27;21.92;;;10.50;;
35276;SDS011;21401;50.878;8.050;2022-10-19T08:30:53;28.60;;;11.13;;
35276;SDS011;21401;50.878;8.050;2022-10-19T08:33:22;35.30;;;11.68;;
35276;SDS011;21401;50.878;8.050;2022-10-19T08:35:49;28.55;;;10.85;;
35276;SDS011;21401;50.878;8.050;2022-10-19T08:38:14;36.47;;;10.60;;
35276;SDS011;21401;50.878;8.050;2022-10-19T08:40:43;30.73;;;10.55;;
35276;SDS011;21401;50.878;8.050;2022-10-19T08:43:19;38.75;;;11.80;;
35276;SDS011;21401;50.878;8.050;2022-10-19T08:48:50;39.25;;;13.57;;
35276;SDS011;21401;50.878;8.050;2022-10-19T08:51:16;37.53;;;12.18;;
35276;SDS011;21401;50.878;8.050;2022-10-19T09:09:43;25.13;;;9.00;;
35276;SDS011;21401;50.878;8.050;2022-10-19T09:12:23;26.90;;;10.13;;
35276;SDS011;21401;50.878;8.050;2022-10-19T09:15:12;30.77;;;9.57;;
35276;SDS011;21401;50.878;8.050;2022-10-19T09:17:40;26.30;;;10.02;;
35276;SDS011;21401;50.878;8.050;2022-10-19T09:20:16;27.73;;;8.95;;
35276;SDS011;21401;50.878;8.050;2022-10-19T09:22:45;25.73;;;7.78;;
35276;SDS011;21401;50.878;8.050;2022-10-19T09:25:16;21.02;;;7.28;;
35276;SDS011;21401;50.878;8.050;2022-10-19T09:27:44;15.05;;;3.92;;
35276;SDS011;21401;50.878;8.050;2022-10-19T09:30:22;10.27;;;1.92;;
35276;SDS011;21401;50.878;8.050;2022-10-19T09:32:49;7.53;;;1.90;;
35276;SDS011;21401;50.878;8.050;2022-10-19T09:35:30;8.82;;;1.55;;
35276;SDS011;21401;50.878;8.050;2022-10-19T09:37:59;7.63;;;1.77;;
35276;SDS011;21401;50.878;8.050;2022-10-19T09:40:28;8.45;;;2.08;;
35276;SDS011;21401;50.878;8.050;2022-10-19T09:42:54;8.88;;;1.85;;
35276;SDS011;21401;50.878;8.050;2022-10-19T09:45:28;6.30;;;1.50;;
35276;SDS011;21401;50.878;8.050;2022-10-19T09:47:59;14.13;;;2.42;;
35276;SDS011;21401;50.878;8.050;2022-10-19T09:50:41;10.75;;;1.90;;
35276;SDS011;21401;50.878;8.050;2022-10-19T09:53:13;9.07;;;1.17;;
35276;SDS011;21401;50.878;8.050;2022-10-19T09:55:48;6.55;;;1.30;;
35276;SDS011;21401;50.878;8.050;2022-10-19T09:58:22;10.43;;;1.70;;
35276;SDS011;21401;50.878;8.050;2022-10-19T10:00:55;6.32;;;1.15;;
35276;SDS011;21401;50.878;8.050;2022-10-19T10:03:28;8.95;;;2.20;;
35276;SDS011;21401;50.878;8.050;2022-10-19T10:06:05;5.88;;;1.58;;
35276;SDS011;21401;50.878;8.050;2022-10-19T10:08:47;7.40;;;1.75;;
35276;SDS011;21401;50.878;8.050;2022-10-19T10:19:30;4.78;;;0.95;;
35276;SDS011;21401;50.878;8.050;2022-10-19T10:22:03;11.95;;;1.65;;
35276;SDS011;21401;50.878;8.050;2022-10-19T10:24:31;8.35;;;1.60;;
35276;SDS011;21401;50.878;8.050;2022-10-19T10:26:59;6.78;;;1.23;;
35276;SDS011;21401;50.878;8.050;2022-10-19T10:29:28;4.72;;;0.93;;
35276;SDS011;21401;50.878;8.050;2022-10-19T10:32:15;7.05;;;2.22;;
35276;SDS011;21401;50.878;8.050;2022-10-19T10:34:47;9.80;;;2.63;;
35276;SDS011;21401;50.878;8.050;2022-10-19T10:39:56;5.80;;;1.20;;
35276;SDS011;21401;50.878;8.050;2022-10-19T10:42:41;10.02;;;1.00;;
35276;SDS011;21401;50.878;8.050;2022-10-19T10:45:15;8.00;;;1.05;;
35276;SDS011;21401;50.878;8.050;2022-10-19T10:47:41;6.80;;;1.20;;
35276;SDS011;21401;50.878;8.050;2022-10-19T10:50:14;10.48;;;2.05;;
35276;SDS011;21401;50.878;8.050;2022-10-19T10:52:56;5.63;;;1.02;;
35276;SDS011;21401;50.878;8.050;2022-10-19T10:55:23;5.93;;;1.85;;
35276;SDS011;21401;50.878;8.050;2022-10-19T10:57:53;7.03;;;1.15;;
35276;SDS011;21401;50.878;8.050;2022-10-19T11:00:43;3.90;;;1.05;;
35276;SDS011;21401;50.878;8.050;2022-10-19T11:03:15;10.57;;;1.40;;
35276;SDS011;21401;50.878;8.050;2022-10-19T11:05:50;6.57;;;1.20;;
35276;SDS011;21401;50.878;8.050;2022-10-19T11:08:22;8.73;;;1.00;;
35276;SDS011;21401;50.878;8.050;2022-10-19T11:16:18;5.90;;;1.10;;
35276;SDS011;21401;50.878;8.050;2022-10-19T11:19:16;6.22;;;1.70;;
35276;SDS011;21401;50.878;8.050;2022-10-19T11:28:07;9.00;;;1.35;;
35276;SDS011;21401;50.878;8.050;2022-10-19T11:31:24;10.23;;;2.03;;
35276;SDS011;21401;50.878;8.050;2022-10-19T11:33:55;9.07;;;1.25;;
35276;SDS011;21401;50.878;8.050;2022-10-19T11:36:46;8.20;;;1.58;;
35276;SDS011;21401;50.878;8.050;2022-10-19T11:50:22;5.93;;;1.25;;
35276;SDS011;21401;50.878;8.050;2022-10-19T12:01:24;7.53;;;1.33;;
35276;SDS011;21401;50.878;8.050;2022-10-19T12:04:12;1.85;;;0.73;;
35276;SDS011;21401;50.878;8.050;2022-10-19T12:06:57;5.72;;;1.05;;
35276;SDS011;21401;50.878;8.050;2022-10-19T12:09:42;11.13;;;1.35;;
35276;SDS011;21401;50.878;8.050;2022-10-19T12:12:54;7.05;;;1.42;;
35276;SDS011;21401;50.878;8.050;2022-10-19T12:15:12;7.40;;;1.13;;
35276;SDS011;21401;50.878;8.050;2022-10-19T12:17:53;6.25;;;2.20;;
35276;SDS011;21401;50.878;8.050;2022-10-19T12:20:37;6.72;;;1.30;;
35276;SDS011;21401;50.878;8.050;2022-10-19T12:23:31;3.97;;;0.85;;
35276;SDS011;21401;50.878;8.050;2022-10-19T12:25:59;7.72;;;1.20;;
35276;SDS011;21401;50.878;8.050;2022-10-19T12:28:31;2.72;;;0.82;;
35276;SDS011;21401;50.878;8.050;2022-10-19T12:30:59;6.10;;;0.90;;
35276;SDS011;21401;50.878;8.050;2022-10-19T12:33:36;5.35;;;1.13;;
35276;SDS011;21401;50.878;8.050;2022-10-19T12:47:33;3.70;;;0.80;;
35276;SDS011;21401;50.878;8.050;2022-10-19T12:49:59;9.10;;;0.73;;
35276;SDS011;21401;50.878;8.050;2022-10-19T12:55:21;6.85;;;1.20;;
35276;SDS011;21401;50.878;8.050;2022-10-19T12:58:03;4.30;;;0.95;;
35276;SDS011;21401;50.878;8.050;2022-10-19T13:00:34;5.93;;;0.75;;
35276;SDS011;21401;50.878;8.050;2022-10-19T13:03:14;7.03;;;1.08;;
35276;SDS011;21401;50.878;8.050;2022-10-19T13:05:58;5.70;;;1.00;;
35276;SDS011;21401;50.878;8.050;2022-10-19T13:08:27;4.40;;;0.90;;
35276;SDS011;21401;50.878;8.050;2022-10-19T13:11:07;6.38;;;1.00;;
35276;SDS011;21401;50.878;8.050;2022-10-19T13:29:38;4.35;;;0.65;;
35276;SDS011;21401;50.878;8.050;2022-10-19T13:40:33;8.95;;;0.88;;
35276;SDS011;21401;50.878;8.050;2022-10-19T13:43:16;5.63;;;0.60;;
35276;SDS011;21401;50.878;8.050;2022-10-19T13:45:51;4.90;;;1.30;;
35276;SDS011;21401;50.878;8.050;2022-10-19T13:48:22;2.58;;;0.60;;
35276;SDS011;21401;50.878;8.050;2022-10-19T13:50:59;2.92;;;0.77;;
35276;SDS011;21401;50.878;8.050;2022-10-19T13:53:56;7.15;;;1.20;;
35276;SDS011;21401;50.878;8.050;2022-10-19T13:56:45;3.35;;;1.08;;
35276;SDS011;21401;50.878;8.050;2022-10-19T14:02:21;8.23;;;1.80;;
35276;SDS011;21401;50.878;8.050;2022-10-19T14:10:24;4.18;;;0.95;;
35276;SDS011;21401;50.878;8.050;2022-10-19T14:12:51;4.40;;;0.77;;
35276;SDS011;21401;50.878;8.050;2022-10-19T14:17:44;5.53;;;1.15;;
35276;SDS011;21401;50.878;8.050;2022-10-19T14:20:24;5.72;;;1.27;;
35276;SDS011;21401;50.878;8.050;2022-10-19T14:22:52;6.33;;;1.47;;
35276;SDS011;21401;50.878;8.050;2022-10-19T14:25:22;7.63;;;0.60;;
35276;SDS011;21401;50.878;8.050;2022-10-19T14:27:59;6.30;;;0.77;;
35276;SDS011;21401;50.878;8.050;2022-10-19T14:32:56;8.52;;;1.30;;
35276;SDS011;21401;50.878;8.050;2022-10-19T14:35:32;5.65;;;1.20;;
35276;SDS011;21401;50.878;8.050;2022-10-19T14:38:00;5.20;;;1.17;;
35276;SDS011;21401;50.878;8.050;2022-10-19T14:40:31;8.68;;;1.90;;
35276;SDS011;21401;50.878;8.050;2022-10-19T14:46:10;3.97;;;0.90;;
35276;SDS011;21401;50.878;8.050;2022-10-19T14:48:38;4.60;;;1.23;;
35276;SDS011;21401;50.878;8.050;2022-10-19T14:53:51;10.70;;;2.35;;
35276;SDS011;21401;50.878;8.050;2022-10-19T14:56:33;7.57;;;1.85;;
35276;SDS011;21401;50.878;8.050;2022-10-19T15:02:05;6.55;;;1.13;;
35276;SDS011;21401;50.878;8.050;2022-10-19T15:04:42;5.95;;;1.90;;
35276;SDS011;21401;50.878;8.050;2022-10-19T15:07:19;4.90;;;1.83;;
35276;SDS011;21401;50.878;8.050;2022-10-19T15:09:50;5.68;;;1.23;;
35276;SDS011;21401;50.878;8.050;2022-10-19T15:12:22;6.78;;;1.27;;
35276;SDS011;21401;50.878;8.050;2022-10-19T15:14:54;4.95;;;1.00;;
35276;SDS011;21401;50.878;8.050;2022-10-19T15:19:57;8.57;;;1.65;;
35276;SDS011;21401;50.878;8.050;2022-10-19T15:22:35;13.30;;;1.92;;
35276;SDS011;21401;50.878;8.050;2022-10-19T15:27:33;3.80;;;1.02;;
35276;SDS011;21401;50.878;8.050;2022-10-19T15:30:05;3.92;;;1.48;;
35276;SDS011;21401;50.878;8.050;2022-10-19T15:35:31;5.10;;;1.20;;
35276;SDS011;21401;50.878;8.050;2022-10-19T15:40:43;8.63;;;1.45;;
35276;SDS011;21401;50.878;8.050;2022-10-19T15:43:33;3.22;;;1.02;;
35276;SDS011;21401;50.878;8.050;2022-10-19T15:46:02;6.80;;;1.45;;
35276;SDS011;21401;50.878;8.050;2022-10-19T15:48:46;3.85;;;0.95;;
35276;SDS011;21401;50.878;8.050;2022-10-19T15:53:51;3.03;;;0.90;;
35276;SDS011;21401;50.878;8.050;2022-10-19T15:56:19;4.20;;;1.10;;
35276;SDS011;21401;50.878;8.050;2022-10-19T15:58:48;6.05;;;1.20;;
35276;SDS011;21401;50.878;8.050;2022-10-19T16:01:15;4.95;;;1.02;;
35276;SDS011;21401;50.878;8.050;2022-10-19T16:03:43;7.10;;;1.85;;
35276;SDS011;21401;50.878;8.050;2022-10-19T16:06:10;7.45;;;1.30;;
35276;SDS011;21401;50.878;8.050;2022-10-19T16:08:35;3.45;;;0.77;;
35276;SDS011;21401;50.878;8.050;2022-10-19T16:11:01;4.75;;;1.13;;
35276;SDS011;21401;50.878;8.050;2022-10-19T16:13:28;2.85;;;0.90;;
35276;SDS011;21401;50.878;8.050;2022-10-19T16:15:57;3.65;;;0.80;;
35276;SDS011;21401;50.878;8.050;2022-10-19T16:18:34;5.55;;;1.38;;
35276;SDS011;21401;50.878;8.050;2022-10-19T16:21:00;6.75;;;1.48;;
35276;SDS011;21401;50.878;8.050;2022-10-19T16:23:27;6.57;;;1.88;;
35276;SDS011;21401;50.878;8.050;2022-10-19T16:25:54;6.53;;;1.17;;
35276;SDS011;21401;50.878;8.050;2022-10-19T16:28:22;4.30;;;1.30;;
35276;SDS011;21401;50.878;8.050;2022-10-19T16:30:51;3.53;;;1.02;;
35276;SDS011;21401;50.878;8.050;2022-10-19T16:33:18;6.20;;;1.17;;
35276;SDS011;21401;50.878;8.050;2022-10-19T16:35:43;3.88;;;1.17;;
35276;SDS011;21401;50.878;8.050;2022-10-19T16:38:11;4.10;;;1.05;;
35276;SDS011;21401;50.878;8.050;2022-10-19T16:40:37;6.93;;;1.23;;
35276;SDS011;21401;50.878;8.050;2022-10-19T16:43:05;5.35;;;0.95;;
35276;SDS011;21401;50.878;8.050;2022-10-19T16:45:30;7.05;;;1.02;;
35276;SDS011;21401;50.878;8.050;2022-10-19T16:47:56;17.02;;;1.40;;
35276;SDS011;21401;50.878;8.050;2022-10-19T16:50:24;6.80;;;1.20;;
35276;SDS011;21401;50.878;8.050;2022-10-19T16:53:01;3.40;;;0.90;;
35276;SDS011;21401;50.878;8.050;2022-10-19T16:55:34;1.55;;;0.95;;
35276;SDS011;21401;50.878;8.050;2022-10-19T16:58:06;3.83;;;0.95;;
35276;SDS011;21401;50.878;8.050;2022-10-19T17:00:32;6.50;;;1.00;;
35276;SDS011;21401;50.878;8.050;2022-10-19T17:03:01;3.78;;;1.05;;
35276;SDS011;21401;50.878;8.050;2022-10-19T17:05:26;4.63;;;1.42;;
35276;SDS011;21401;50.878;8.050;2022-10-19T17:07:52;6.65;;;1.58;;
35276;SDS011;21401;50.878;8.050;2022-10-19T17:10:22;3.75;;;1.23;;
35276;SDS011;21401;50.878;8.050;2022-10-19T17:12:57;4.53;;;1.30;;
35276;SDS011;21401;50.878;8.050;2022-10-19T17:15:25;13.65;;;1.77;;
35276;SDS011;21401;50.878;8.050;2022-10-19T17:17:50;4.38;;;1.70;;
35276;SDS011;21401;50.878;8.050;2022-10-19T17:20:16;4.25;;;1.85;;
35276;SDS011;21401;50.878;8.050;2022-10-19T17:22:44;6.57;;;1.80;;
35276;SDS011;21401;50.878;8.050;2022-10-19T17:25:09;3.85;;;1.58;;
35276;SDS011;21401;50.878;8.050;2022-10-19T17:27:35;8.32;;;2.40;;
35276;SDS011;21401;50.878;8.050;2022-10-19T17:30:00;9.52;;;2.60;;
35276;SDS011;21401;50.878;8.050;2022-10-19T17:32:28;7.32;;;1.70;;
35276;SDS011;21401;50.878;8.050;2022-10-19T17:34:54;11.95;;;1.98;;
35276;SDS011;21401;50.878;8.050;2022-10-19T17:37:19;6.63;;;1.42;;